Time;durP1;ratioP1;P1;durP2;ratioP2;P2;SDS_P1;SDS_P2;PMS_P1;PMS_P2;Temp;Humidity;BMP_temperature;BMP_pressure;BME280_temperature;BME280_humidity;BME280_pressure;Samples;Min_cycle;Max_cycle;Signal;HPM_P1;HPM_P2
2023/04/18 00:02:21;;;;;;;4.30;4.00;;;;;;;;;;5073994;28;20410;-79
2023/04/18 00:04:49;;;;;;;3.90;3.65;;;;;;;;;;5073829;28;20390;-79
2023/04/18 00:07:15;;;;;;;4.40;4.10;;;;;;;;;;5073678;28;20404;-79
2023/04/18 00:09:42;;;;;;;4.32;4.03;;;;;;;;;;5073905;28;20384;-78
2023/04/18 00:12:08;;;;;;;4.38;4.07;;;;;;;;;;5073939;28;20379;-79
2023/04/18 00:14:36;;;;;;;4.97;4.57;;;;;;;;;;5073777;28;20406;-79
2023/04/18 00:17:03;;;;;;;5.33;4.93;;;;;;;;;;5072642;28;20748;-78
2023/04/18 00:19:29;;;;;;;5.32;4.93;;;;;;;;;;5073907;28;20429;-79
2023/04/18 00:21:56;;;;;;;5.40;5.00;;;;;;;;;;5073619;28;20376;-79
2023/04/18 00:24:22;;;;;;;6.22;5.10;;;;;;;;;;5073771;28;20382;-79
2023/04/18 00:26:49;;;;;;;7.80;7.10;;;;;;;;;;5073400;28;20403;-79
2023/04/18 00:29:14;;;;;;;6.15;5.65;;;;;;;;;;5073724;28;20883;-79
2023/04/18 00:31:40;;;;;;;8.10;7.30;;;;;;;;;;5073478;28;20380;-79
2023/04/18 00:34:06;;;;;;;6.70;6.20;;;;;;;;;;5073509;28;20781;-79
2023/04/18 00:36:32;;;;;;;6.20;5.78;;;;;;;;;;5073641;28;20421;-78
2023/04/18 00:38:58;;;;;;;6.13;5.72;;;;;;;;;;5073440;28;20383;-79
2023/04/18 00:41:27;;;;;;;6.15;5.75;;;;;;;;;;5072132;28;20845;-79
2023/04/18 00:43:53;;;;;;;6.50;6.10;;;;;;;;;;5073258;28;20749;-79
2023/04/18 00:46:19;;;;;;;6.57;6.17;;;;;;;;;;5072075;28;20432;-78
2023/04/18 00:48:45;;;;;;;6.55;6.10;;;;;;;;;;5070950;28;20752;-79
2023/04/18 00:51:11;;;;;;;7.15;6.65;;;;;;;;;;5071756;28;20414;-79
2023/04/18 00:53:38;;;;;;;7.80;7.20;;;;;;;;;;5072828;28;20861;-79
2023/04/18 00:56:04;;;;;;;7.13;6.63;;;;;;;;;;5072678;28;20394;-79
2023/04/18 00:58:31;;;;;;;7.70;7.10;;;;;;;;;;5072936;28;20830;-79
2023/04/18 01:00:57;;;;;;;8.10;7.50;;;;;;;;;;5072107;28;20372;-79
2023/04/18 01:03:24;;;;;;;7.90;7.30;;;;;;;;;;5064376;28;20802;-79
2023/04/18 01:05:50;;;;;;;7.80;7.30;;;;;;;;;;5066975;28;20407;-79
2023/04/18 01:08:18;;;;;;;8.18;7.57;;;;;;;;;;5073169;28;20461;-79
2023/04/18 01:10:44;;;;;;;8.05;7.45;;;;;;;;;;5072983;28;20845;-79
2023/04/18 01:13:14;;;;;;;9.00;8.38;;;;;;;;;;5072858;28;20388;-79
2023/04/18 01:15:41;;;;;;;8.23;7.65;;;;;;;;;;5072847;28;20388;-79
2023/04/18 01:18:07;;;;;;;8.93;8.32;;;;;;;;;;5072630;28;20380;-79
2023/04/18 01:20:35;;;;;;;8.23;7.72;;;;;;;;;;5072799;28;20466;-79
2023/04/18 01:23:01;;;;;;;9.90;9.10;;;;;;;;;;5072636;28;20501;-79
2023/04/18 01:25:29;;;;;;;9.55;8.85;;;;;;;;;;5071790;28;20470;-78
2023/04/18 01:27:57;;;;;;;9.82;9.13;;;;;;;;;;5072253;28;20404;-79
2023/04/18 01:30:23;;;;;;;9.45;8.70;;;;;;;;;;5072462;28;20458;-78
2023/04/18 01:32:49;;;;;;;10.40;9.60;;;;;;;;;;5072557;28;20447;-78
2023/04/18 01:35:16;;;;;;;10.30;9.52;;;;;;;;;;5072279;28;20441;-79
2023/04/18 01:37:42;;;;;;;10.48;9.77;;;;;;;;;;5072239;28;20869;-78
2023/04/18 01:40:09;;;;;;;10.90;10.10;;;;;;;;;;5072236;28;20395;-78
2023/04/18 01:42:35;;;;;;;10.30;9.50;;;;;;;;;;5072178;28;20853;-79
2023/04/18 01:45:01;;;;;;;11.10;10.30;;;;;;;;;;5071954;28;20498;-78
2023/04/18 01:47:27;;;;;;;10.32;9.52;;;;;;;;;;5071442;28;20455;-78
2023/04/18 01:49:53;;;;;;;10.35;9.63;;;;;;;;;;5071266;28;20857;-79
2023/04/18 01:52:18;;;;;;;31.93;22.13;;;;;;;;;;5071791;28;20406;-79
2023/04/18 01:54:44;;;;;;;9.98;9.18;;;;;;;;;;5068851;28;20817;-78
2023/04/18 01:57:10;;;;;;;10.00;9.30;;;;;;;;;;5071652;28;20387;-78
2023/04/18 01:59:36;;;;;;;10.13;9.43;;;;;;;;;;5071445;28;20376;-79
2023/04/18 02:02:02;;;;;;;47.45;25.55;;;;;;;;;;5071666;28;20387;-78
2023/04/18 02:04:28;;;;;;;15.73;13.32;;;;;;;;;;5071781;28;20388;-79
2023/04/18 02:06:54;;;;;;;39.10;21.70;;;;;;;;;;5071457;28;20403;-79
2023/04/18 02:09:20;;;;;;;11.63;10.63;;;;;;;;;;5071684;28;20865;-79
2023/04/18 02:11:46;;;;;;;10.02;9.32;;;;;;;;;;5070442;28;20391;-79
2023/04/18 02:14:12;;;;;;;10.33;9.53;;;;;;;;;;5071715;28;20469;-79
2023/04/18 02:16:38;;;;;;;10.63;9.82;;;;;;;;;;5071370;28;20388;-79
2023/04/18 02:19:05;;;;;;;9.57;8.90;;;;;;;;;;5065348;28;20430;-79
2023/04/18 02:21:31;;;;;;;79.63;36.22;;;;;;;;;;5068826;28;20792;-79
2023/04/18 02:23:57;;;;;;;61.85;31.02;;;;;;;;;;5070766;28;20451;-79
2023/04/18 02:26:23;;;;;;;12.38;11.18;;;;;;;;;;5070382;28;20427;-79
2023/04/18 02:28:49;;;;;;;9.32;8.63;;;;;;;;;;5071453;28;20379;-79
2023/04/18 02:31:15;;;;;;;9.57;8.97;;;;;;;;;;5071395;28;20372;-79
2023/04/18 02:33:42;;;;;;;9.40;8.70;;;;;;;;;;5071330;28;20380;-79
2023/04/18 02:36:08;;;;;;;8.63;8.02;;;;;;;;;;5070375;28;20429;-79
2023/04/18 02:38:34;;;;;;;8.88;8.18;;;;;;;;;;5069318;28;20380;-79
2023/04/18 02:41:00;;;;;;;8.52;7.93;;;;;;;;;;5070662;28;20390;-79
2023/04/18 02:43:26;;;;;;;7.65;7.15;;;;;;;;;;5070884;28;20483;-79
2023/04/18 02:45:52;;;;;;;8.47;7.77;;;;;;;;;;5071134;28;20947;-79
2023/04/18 02:48:18;;;;;;;7.35;6.85;;;;;;;;;;5070948;28;20391;-79
2023/04/18 02:50:44;;;;;;;7.70;7.20;;;;;;;;;;5070066;28;20407;-78
2023/04/18 02:53:10;;;;;;;7.37;6.87;;;;;;;;;;5070788;28;20454;-78
2023/04/18 02:55:36;;;;;;;7.88;7.30;;;;;;;;;;5070452;28;20384;-78
2023/04/18 02:58:02;;;;;;;7.50;7.00;;;;;;;;;;5065103;28;20385;-78
2023/04/18 03:00:28;;;;;;;7.72;7.22;;;;;;;;;;5067906;28;20405;-78
2023/04/18 03:02:54;;;;;;;8.25;7.65;;;;;;;;;;5068927;28;20383;-78
2023/04/18 03:05:21;;;;;;;7.75;7.15;;;;;;;;;;5068838;28;20407;-78
2023/04/18 03:07:47;;;;;;;8.43;7.82;;;;;;;;;;5068077;28;20753;-78
2023/04/18 03:10:13;;;;;;;8.70;8.10;;;;;;;;;;5068922;28;20850;-78
2023/04/18 03:12:39;;;;;;;8.40;7.80;;;;;;;;;;5069127;28;20383;-78
2023/04/18 03:15:05;;;;;;;8.57;7.97;;;;;;;;;;5068889;28;20460;-77
2023/04/18 03:17:31;;;;;;;8.57;7.95;;;;;;;;;;5070195;28;20416;-78
2023/04/18 03:19:57;;;;;;;9.27;8.57;;;;;;;;;;5070853;28;20504;-78
2023/04/18 03:22:23;;;;;;;8.60;8.00;;;;;;;;;;5070854;28;20380;-78
2023/04/18 03:24:49;;;;;;;8.20;7.60;;;;;;;;;;5070651;28;20492;-78
2023/04/18 03:27:15;;;;;;;8.38;7.72;;;;;;;;;;5070785;28;20368;-78
2023/04/18 03:29:41;;;;;;;8.65;7.97;;;;;;;;;;5070839;28;20718;-78
2023/04/18 03:32:07;;;;;;;8.00;7.50;;;;;;;;;;5070686;28;20371;-78
2023/04/18 03:34:33;;;;;;;8.85;8.25;;;;;;;;;;5064999;28;20389;-78
2023/04/18 03:37:00;;;;;;;9.02;8.40;;;;;;;;;;5057476;28;20394;-78
2023/04/18 03:39:25;;;;;;;9.55;8.80;;;;;;;;;;5070279;28;20437;-78
2023/04/18 03:41:52;;;;;;;9.38;8.68;;;;;;;;;;5070649;28;20741;-78
2023/04/18 03:44:18;;;;;;;9.10;8.40;;;;;;;;;;5069512;28;20792;-78
2023/04/18 03:46:44;;;;;;;9.30;8.60;;;;;;;;;;5070400;28;20404;-78
2023/04/18 03:49:10;;;;;;;9.98;9.25;;;;;;;;;;5069716;28;20895;-78
2023/04/18 03:51:42;;;;;;;9.32;8.63;;;;;;;;;;5071366;28;20414;-77
2023/04/18 03:54:08;;;;;;;9.50;8.80;;;;;;;;;;5073019;28;20376;-78
2023/04/18 03:56:34;;;;;;;9.75;9.05;;;;;;;;;;5073944;28;20865;-78
2023/04/18 03:59:00;;;;;;;10.38;9.68;;;;;;;;;;5073617;28;20861;-78
2023/04/18 04:01:26;;;;;;;10.85;9.93;;;;;;;;;;5072719;28;20927;-78
2023/04/18 04:03:52;;;;;;;11.30;10.50;;;;;;;;;;5071503;28;20375;-78
2023/04/18 04:06:18;;;;;;;11.10;10.30;;;;;;;;;;5073644;28;20756;-78
2023/04/18 04:08:44;;;;;;;10.80;9.98;;;;;;;;;;5073752;28;20899;-79
2023/04/18 04:11:10;;;;;;;11.63;10.73;;;;;;;;;;5073809;28;20406;-79
2023/04/18 04:13:36;;;;;;;10.82;9.98;;;;;;;;;;5072532;28;20861;-79
2023/04/18 04:16:02;;;;;;;11.50;10.60;;;;;;;;;;5073512;28;20387;-78
2023/04/18 04:18:31;;;;;;;11.52;10.63;;;;;;;;;;5073676;28;20386;-78
2023/04/18 04:20:58;;;;;;;11.55;10.60;;;;;;;;;;5073482;28;20380;-78
2023/04/18 04:23:25;;;;;;;11.55;10.65;;;;;;;;;;5064567;28;20392;-78
2023/04/18 04:25:55;;;;;;;11.80;10.90;;;;;;;;;;5072234;28;20853;-78
2023/04/18 04:28:25;;;;;;;11.90;10.90;;;;;;;;;;5072913;28;20379;-78
2023/04/18 04:30:51;;;;;;;11.98;11.07;;;;;;;;;;5069049;28;20397;-78
2023/04/18 04:33:18;;;;;;;12.93;11.93;;;;;;;;;;5070391;28;20484;-76
2023/04/18 04:35:45;;;;;;;13.70;12.60;;;;;;;;;;5067020;28;20468;-76
2023/04/18 04:38:13;;;;;;;13.27;12.20;;;;;;;;;;5054669;28;20392;-76
2023/04/18 04:40:39;;;;;;;14.55;13.23;;;;;;;;;;5062017;28;20729;-76
2023/04/18 04:43:05;;;;;;;13.18;12.07;;;;;;;;;;5072686;28;20390;-77
2023/04/18 04:45:31;;;;;;;13.70;12.60;;;;;;;;;;5073514;28;20403;-76
2023/04/18 04:47:58;;;;;;;15.00;13.60;;;;;;;;;;5073395;28;20471;-76
2023/04/18 04:50:24;;;;;;;15.30;13.98;;;;;;;;;;5073644;28;20408;-76
2023/04/18 04:52:50;;;;;;;17.73;15.93;;;;;;;;;;5073033;28;20383;-76
2023/04/18 04:55:17;;;;;;;16.83;15.25;;;;;;;;;;5071961;28;20380;-76
2023/04/18 04:57:44;;;;;;;26.45;19.77;;;;;;;;;;5073167;28;20718;-76
2023/04/18 05:00:12;;;;;;;56.50;34.47;;;;;;;;;;5072198;28;20391;-77
2023/04/18 05:02:38;;;;;;;16.33;14.77;;;;;;;;;;5070517;28;20382;-76
2023/04/18 05:05:04;;;;;;;16.30;14.75;;;;;;;;;;5068071;28;20379;-77
2023/04/18 05:07:30;;;;;;;16.20;14.70;;;;;;;;;;5066908;28;20405;-77
2023/04/18 05:09:56;;;;;;;16.00;14.60;;;;;;;;;;5063995;28;20395;-76
2023/04/18 05:12:22;;;;;;;19.08;17.08;;;;;;;;;;5057563;28;20455;-75
2023/04/18 05:14:48;;;;;;;16.10;14.70;;;;;;;;;;5053964;28;20414;-76
2023/04/18 05:17:14;;;;;;;16.27;14.63;;;;;;;;;;5061936;28;20468;-78
2023/04/18 05:19:42;;;;;;;16.02;14.52;;;;;;;;;;5069433;28;20855;-79
2023/04/18 05:22:11;;;;;;;16.80;15.30;;;;;;;;;;5069956;28;20383;-79
2023/04/18 05:24:38;;;;;;;16.70;15.10;;;;;;;;;;5066641;28;20882;-78
2023/04/18 05:27:04;;;;;;;19.92;17.48;;;;;;;;;;5066209;28;20825;-78
2023/04/18 05:29:30;;;;;;;17.17;15.48;;;;;;;;;;5060992;28;20786;-78
2023/04/18 05:31:56;;;;;;;16.65;15.02;;;;;;;;;;5063011;28;20380;-78
2023/04/18 05:34:22;;;;;;;16.60;15.00;;;;;;;;;;5060278;28;20406;-78
2023/04/18 05:36:48;;;;;;;18.80;16.83;;;;;;;;;;5060402;28;20476;-79
2023/04/18 05:39:15;;;;;;;17.02;15.32;;;;;;;;;;5059421;28;20417;-79
2023/04/18 05:41:41;;;;;;;27.90;20.23;;;;;;;;;;5058677;28;20378;-80
2023/04/18 05:44:08;;;;;;;16.35;14.75;;;;;;;;;;5064434;28;20381;-80
2023/04/18 05:46:34;;;;;;;17.03;15.30;;;;;;;;;;5055739;28;20488;-79
2023/04/18 05:49:00;;;;;;;17.02;15.23;;;;;;;;;;5067033;28;20391;-80
2023/04/18 05:51:27;;;;;;;17.15;15.45;;;;;;;;;;5070465;28;20375;-79
2023/04/18 05:53:53;;;;;;;15.95;14.45;;;;;;;;;;5066770;28;20382;-79
2023/04/18 05:56:19;;;;;;;15.82;14.43;;;;;;;;;;5067454;28;20845;-79
2023/04/18 05:58:46;;;;;;;16.15;14.68;;;;;;;;;;5066793;28;21302;-79
2023/04/18 06:01:17;;;;;;;19.52;16.55;;;;;;;;;;5071024;28;20380;-79
2023/04/18 06:03:43;;;;;;;16.48;14.98;;;;;;;;;;5070412;28;20867;-80
2023/04/18 06:06:09;;;;;;;17.58;15.88;;;;;;;;;;5058494;28;20437;-79
2023/04/18 06:08:35;;;;;;;19.35;17.05;;;;;;;;;;5059297;28;20722;-79
2023/04/18 06:11:01;;;;;;;23.13;19.52;;;;;;;;;;5057594;28;20882;-80
2023/04/18 06:13:27;;;;;;;22.52;18.38;;;;;;;;;;5057766;28;20391;-78
2023/04/18 06:15:53;;;;;;;27.70;21.95;;;;;;;;;;5069641;28;20383;-80
2023/04/18 06:18:19;;;;;;;85.60;49.65;;;;;;;;;;5062617;28;20386;-79
2023/04/18 06:20:45;;;;;;;26.00;21.00;;;;;;;;;;5061783;28;20982;-79
2023/04/18 06:23:11;;;;;;;18.63;16.73;;;;;;;;;;5067332;28;20516;-79
2023/04/18 06:25:37;;;;;;;19.50;17.48;;;;;;;;;;5068090;28;20843;-80
2023/04/18 06:28:03;;;;;;;20.35;18.17;;;;;;;;;;5067417;28;20376;-79
2023/04/18 06:30:29;;;;;;;19.95;17.95;;;;;;;;;;5068469;28;20387;-79
2023/04/18 06:32:55;;;;;;;20.33;18.23;;;;;;;;;;5064532;28;20473;-79
2023/04/18 06:35:21;;;;;;;18.77;16.83;;;;;;;;;;5064349;28;20384;-79
2023/04/18 06:37:47;;;;;;;20.23;18.17;;;;;;;;;;5071051;28;20390;-79
2023/04/18 06:40:13;;;;;;;20.50;18.33;;;;;;;;;;5068196;28;20465;-79
2023/04/18 06:42:42;;;;;;;22.25;19.85;;;;;;;;;;5059583;28;20388;-79
2023/04/18 06:45:10;;;;;;;21.63;19.27;;;;;;;;;;5061882;28;20610;-78
2023/04/18 06:47:36;;;;;;;21.77;19.50;;;;;;;;;;5070717;28;20379;-78
2023/04/18 06:50:02;;;;;;;21.98;19.67;;;;;;;;;;5061779;28;20426;-78
2023/04/18 06:52:28;;;;;;;21.08;18.70;;;;;;;;;;5066206;28;20469;-78
2023/04/18 06:54:54;;;;;;;21.75;19.45;;;;;;;;;;5067781;28;20417;-78
2023/04/18 06:57:20;;;;;;;22.65;20.25;;;;;;;;;;5060941;28;20920;-79
2023/04/18 06:59:46;;;;;;;22.35;19.98;;;;;;;;;;5068441;28;20392;-78
2023/04/18 07:02:12;;;;;;;22.83;20.52;;;;;;;;;;5069749;28;20865;-78
2023/04/18 07:04:38;;;;;;;22.13;19.85;;;;;;;;;;5070684;28;20376;-79
2023/04/18 07:07:04;;;;;;;23.67;21.08;;;;;;;;;;5073177;28;20419;-79
2023/04/18 07:09:30;;;;;;;24.30;21.80;;;;;;;;;;5073981;28;20402;-78
2023/04/18 07:11:56;;;;;;;21.90;19.70;;;;;;;;;;5070988;28;20728;-78
2023/04/18 07:14:23;;;;;;;21.77;19.52;;;;;;;;;;5070659;28;20441;-78
2023/04/18 07:16:50;;;;;;;21.40;19.23;;;;;;;;;;5067953;28;20391;-78
2023/04/18 07:19:16;;;;;;;24.20;21.45;;;;;;;;;;5058508;28;20401;-79
2023/04/18 07:21:43;;;;;;;22.00;19.65;;;;;;;;;;5068951;28;20380;-79
2023/04/18 07:24:09;;;;;;;21.48;19.38;;;;;;;;;;5062643;28;20387;-78
2023/04/18 07:26:36;;;;;;;22.05;19.85;;;;;;;;;;5071711;28;20943;-78
2023/04/18 07:29:02;;;;;;;20.27;18.33;;;;;;;;;;5075025;28;20433;-78
2023/04/18 07:31:29;;;;;;;20.73;18.63;;;;;;;;;;5074647;28;20387;-78
2023/04/18 07:33:55;;;;;;;20.98;18.77;;;;;;;;;;5064640;28;20386;-78
2023/04/18 07:36:22;;;;;;;20.58;18.50;;;;;;;;;;5062561;28;20397;-80
2023/04/18 07:38:48;;;;;;;19.90;18.00;;;;;;;;;;5068652;28;20982;-79
2023/04/18 07:41:14;;;;;;;20.77;18.73;;;;;;;;;;5071280;28;20418;-79
2023/04/18 07:43:40;;;;;;;20.52;18.52;;;;;;;;;;5066061;28;20391;-79
2023/04/18 07:46:06;;;;;;;20.85;18.70;;;;;;;;;;5056454;28;20416;-79
2023/04/18 07:48:32;;;;;;;20.98;18.92;;;;;;;;;;5073776;28;20445;-79
2023/04/18 07:50:58;;;;;;;20.88;18.80;;;;;;;;;;5078478;28;20392;-79
2023/04/18 07:53:25;;;;;;;21.85;19.65;;;;;;;;;;5077503;28;20437;-79
2023/04/18 07:55:51;;;;;;;22.73;20.25;;;;;;;;;;5075313;28;20475;-79
2023/04/18 07:58:17;;;;;;;23.17;20.77;;;;;;;;;;5074316;28;20467;-80
2023/04/18 08:00:43;;;;;;;22.67;20.27;;;;;;;;;;5074334;28;20424;-79
2023/04/18 08:03:10;;;;;;;22.95;20.55;;;;;;;;;;5073873;28;20381;-79
2023/04/18 08:05:37;;;;;;;23.42;20.92;;;;;;;;;;5071687;28;20416;-80
2023/04/18 08:08:05;;;;;;;24.23;21.63;;;;;;;;;;5073776;28;20400;-79
2023/04/18 08:10:31;;;;;;;22.65;20.35;;;;;;;;;;5073409;28;20387;-79
2023/04/18 08:12:57;;;;;;;23.17;20.77;;;;;;;;;;5073441;28;20372;-79
2023/04/18 08:15:23;;;;;;;23.23;20.92;;;;;;;;;;5073451;28;20379;-79
2023/04/18 08:17:49;;;;;;;23.40;21.08;;;;;;;;;;5061591;28;20385;-79
2023/04/18 08:20:15;;;;;;;23.75;21.33;;;;;;;;;;5054717;28;20451;-79
2023/04/18 08:22:42;;;;;;;24.90;22.30;;;;;;;;;;5066336;28;20376;-79
2023/04/18 08:25:08;;;;;;;25.77;22.88;;;;;;;;;;5069745;28;20385;-80
2023/04/18 08:27:34;;;;;;;24.15;21.55;;;;;;;;;;5070177;28;20380;-79
2023/04/18 08:30:02;;;;;;;25.45;22.73;;;;;;;;;;5065232;28;20384;-80
2023/04/18 08:32:28;;;;;;;23.88;21.48;;;;;;;;;;5066998;28;20384;-79
2023/04/18 08:34:55;;;;;;;23.55;21.25;;;;;;;;;;5060636;28;20389;-79
2023/04/18 08:37:21;;;;;;;24.25;21.75;;;;;;;;;;5061864;28;20388;-80
2023/04/18 08:39:47;;;;;;;25.03;21.53;;;;;;;;;;5056445;28;20867;-78
2023/04/18 08:42:17;;;;;;;24.45;21.88;;;;;;;;;;5072359;28;20388;-79
2023/04/18 08:44:44;;;;;;;22.70;20.48;;;;;;;;;;5071732;28;20449;-80
2023/04/18 08:47:11;;;;;;;22.25;20.05;;;;;;;;;;5073364;28;20449;-80
2023/04/18 08:49:37;;;;;;;21.67;19.58;;;;;;;;;;5073271;28;20446;-80
2023/04/18 08:52:10;;;;;;;22.13;19.98;;;;;;;;;;5072148;28;20961;-79
2023/04/18 08:54:37;;;;;;;22.23;20.13;;;;;;;;;;5073261;28;20380;-80
2023/04/18 08:57:07;;;;;;;22.08;19.77;;;;;;;;;;5073362;28;20376;-80
2023/04/18 08:59:34;;;;;;;20.33;18.33;;;;;;;;;;5073202;28;20387;-80
2023/04/18 09:02:01;;;;;;;20.37;18.40;;;;;;;;;;5073258;28;20461;-79
2023/04/18 09:04:30;;;;;;;20.42;18.52;;;;;;;;;;5072998;28;20387;-79
2023/04/18 09:06:56;;;;;;;20.45;18.55;;;;;;;;;;5072676;28;20476;-79
2023/04/18 09:09:26;;;;;;;20.65;18.52;;;;;;;;;;5063037;28;20393;-79
2023/04/18 09:11:53;;;;;;;20.25;18.25;;;;;;;;;;5073043;28;20455;-79
2023/04/18 09:14:26;;;;;;;20.75;18.65;;;;;;;;;;5072840;28;20759;-80
2023/04/18 09:16:52;;;;;;;20.35;18.50;;;;;;;;;;5072895;28;20375;-79
2023/04/18 09:19:18;;;;;;;20.50;18.67;;;;;;;;;;5072877;28;20466;-79
2023/04/18 09:21:47;;;;;;;21.42;19.40;;;;;;;;;;5072719;28;20382;-80
2023/04/18 09:24:25;;;;;;;21.13;18.98;;;;;;;;;;5072028;28;20379;-79
2023/04/18 09:26:52;;;;;;;21.30;19.08;;;;;;;;;;5072388;28;20407;-79
2023/04/18 09:29:21;;;;;;;20.37;18.30;;;;;;;;;;5072669;28;20394;-79
2023/04/18 09:32:00;;;;;;;20.08;18.17;;;;;;;;;;5072564;28;20451;-78
2023/04/18 09:34:26;;;;;;;19.38;17.58;;;;;;;;;;5072371;28;20386;-79
2023/04/18 09:37:07;;;;;;;18.95;17.25;;;;;;;;;;5072351;28;20380;-79
2023/04/18 09:39:33;;;;;;;19.33;17.40;;;;;;;;;;5069207;28;20373;-79
2023/04/18 09:42:00;;;;;;;20.73;18.50;;;;;;;;;;5072352;28;20372;-79
2023/04/18 09:44:26;;;;;;;18.77;17.17;;;;;;;;;;5072020;28;20467;-79
2023/04/18 09:46:52;;;;;;;20.13;18.23;;;;;;;;;;5071942;28;20570;-80
2023/04/18 09:49:18;;;;;;;19.42;17.60;;;;;;;;;;5072083;28;20735;-79
2023/04/18 09:51:45;;;;;;;18.85;17.15;;;;;;;;;;5072179;28;20443;-79
2023/04/18 09:54:14;;;;;;;21.05;18.95;;;;;;;;;;5071823;28;20466;-79
2023/04/18 09:56:43;;;;;;;20.20;18.30;;;;;;;;;;5071951;28;20383;-79
2023/04/18 09:59:09;;;;;;;19.63;17.73;;;;;;;;;;5071959;28;20444;-79
2023/04/18 10:01:35;;;;;;;20.47;18.37;;;;;;;;;;5071940;28;20388;-79
2023/04/18 10:04:06;;;;;;;18.77;17.02;;;;;;;;;;5071959;28;20384;-79
2023/04/18 10:06:33;;;;;;;18.27;16.58;;;;;;;;;;5071731;28;20410;-79
2023/04/18 10:09:00;;;;;;;17.33;15.82;;;;;;;;;;5071604;28;20407;-80
2023/04/18 10:11:26;;;;;;;18.08;16.38;;;;;;;;;;5071621;28;20380;-80
2023/04/18 10:13:55;;;;;;;16.33;14.90;;;;;;;;;;5071684;28;20411;-80
2023/04/18 10:16:22;;;;;;;14.60;13.48;;;;;;;;;;5068275;28;20850;-80
2023/04/18 10:18:49;;;;;;;13.50;12.40;;;;;;;;;;5071620;28;20376;-79
2023/04/18 10:21:15;;;;;;;13.03;12.03;;;;;;;;;;5071487;28;20411;-80
2023/04/18 10:23:41;;;;;;;12.63;11.63;;;;;;;;;;5071616;28;20396;-80
2023/04/18 10:26:08;;;;;;;12.82;11.82;;;;;;;;;;5071554;28;20403;-80
2023/04/18 10:28:55;;;;;;;13.18;12.18;;;;;;;;;;5071458;28;20372;-77
2023/04/18 10:31:22;;;;;;;12.82;11.73;;;;;;;;;;5071474;28;20863;-80
2023/04/18 10:33:48;;;;;;;12.20;11.30;;;;;;;;;;5071374;28;20787;-80
2023/04/18 10:36:19;;;;;;;12.90;11.80;;;;;;;;;;5071456;28;20379;-80
2023/04/18 10:38:58;;;;;;;11.63;10.73;;;;;;;;;;5066555;28;20389;-80
2023/04/18 10:41:25;;;;;;;12.15;11.15;;;;;;;;;;5066522;28;20467;-80
2023/04/18 10:44:13;;;;;;;11.97;10.97;;;;;;;;;;5071308;28;20904;-80
2023/04/18 10:46:43;;;;;;;12.20;11.30;;;;;;;;;;5071048;28;20742;-80
2023/04/18 10:49:16;;;;;;;11.67;10.80;;;;;;;;;;5071146;28;20380;-80
2023/04/18 10:51:45;;;;;;;11.20;10.32;;;;;;;;;;5071199;28;20383;-80
2023/04/18 10:54:12;;;;;;;10.00;9.30;;;;;;;;;;5066175;28;20383;-79
2023/04/18 10:56:39;;;;;;;10.90;10.10;;;;;;;;;;5071043;28;20375;-79
2023/04/18 10:59:05;;;;;;;12.57;11.57;;;;;;;;;;5070981;28;20379;-78
2023/04/18 11:01:31;;;;;;;13.07;12.02;;;;;;;;;;5070221;28;20884;-79
2023/04/18 11:03:58;;;;;;;14.00;12.90;;;;;;;;;;5071342;28;20380;-79
2023/04/18 11:06:26;;;;;;;13.23;12.13;;;;;;;;;;5056666;28;20404;-79
2023/04/18 11:08:52;;;;;;;9.85;9.15;;;;;;;;;;5071458;28;20404;-79
2023/04/18 11:11:18;;;;;;;8.70;8.00;;;;;;;;;;5073880;28;20388;-79
2023/04/18 11:13:57;;;;;;;8.88;8.25;;;;;;;;;;5073966;28;20387;-79
2023/04/18 11:16:27;;;;;;;9.30;8.50;;;;;;;;;;5071732;28;20379;-79
2023/04/18 11:18:54;;;;;;;13.38;12.38;;;;;;;;;;5062461;28;20392;-79
2023/04/18 11:21:20;;;;;;;9.68;8.93;;;;;;;;;;5066508;28;20383;-80
2023/04/18 11:23:46;;;;;;;8.70;8.10;;;;;;;;;;5071321;28;20472;-79
2023/04/18 11:26:16;;;;;;;9.77;8.93;;;;;;;;;;5068236;28;20418;-79
2023/04/18 11:28:42;;;;;;;9.17;8.53;;;;;;;;;;5066863;28;20741;-79
2023/04/18 11:31:08;;;;;;;8.77;8.07;;;;;;;;;;5062901;28;20444;-77
2023/04/18 11:33:34;;;;;;;8.70;8.10;;;;;;;;;;5066786;28;20525;-78
2023/04/18 11:36:00;;;;;;;8.27;7.57;;;;;;;;;;5052572;28;20385;-79
2023/04/18 11:38:30;;;;;;;8.63;8.02;;;;;;;;;;5052788;28;20739;-78
2023/04/18 11:40:56;;;;;;;10.02;9.23;;;;;;;;;;5067407;28;20393;-80
2023/04/18 11:43:23;;;;;;;8.98;8.27;;;;;;;;;;5064864;28;20434;-79
2023/04/18 11:45:56;;;;;;;10.00;9.30;;;;;;;;;;5061342;28;20411;-79
2023/04/18 11:48:22;;;;;;;9.83;9.03;;;;;;;;;;5070487;28;20481;-79
2023/04/18 11:50:48;;;;;;;9.00;8.40;;;;;;;;;;5058929;28;20770;-79
2023/04/18 11:53:15;;;;;;;9.53;8.83;;;;;;;;;;5066952;28;20437;-80
2023/04/18 11:55:41;;;;;;;10.43;9.63;;;;;;;;;;5069418;28;20453;-79
2023/04/18 11:58:07;;;;;;;9.85;9.10;;;;;;;;;;5056484;28;20391;-79
2023/04/18 12:00:37;;;;;;;10.60;9.80;;;;;;;;;;5069615;28;20726;-79
2023/04/18 12:03:04;;;;;;;10.32;9.52;;;;;;;;;;5057261;28;20382;-79
2023/04/18 12:05:31;;;;;;;10.55;9.75;;;;;;;;;;5059594;28;20434;-80
2023/04/18 12:08:04;;;;;;;11.77;10.77;;;;;;;;;;5066880;28;20411;-80
2023/04/18 12:10:31;;;;;;;10.63;9.73;;;;;;;;;;5060779;28;20392;-79
2023/04/18 12:12:57;;;;;;;10.63;9.82;;;;;;;;;;5060287;28;20420;-80
2023/04/18 12:15:26;;;;;;;10.45;9.70;;;;;;;;;;5065935;28;20385;-79
2023/04/18 12:17:56;;;;;;;11.65;10.75;;;;;;;;;;5053266;28;20380;-79
2023/04/18 12:20:24;;;;;;;12.80;11.80;;;;;;;;;;5067234;28;20381;-79
2023/04/18 12:22:53;;;;;;;10.68;9.88;;;;;;;;;;5066927;28;20376;-79
2023/04/18 12:25:22;;;;;;;10.90;10.00;;;;;;;;;;5071744;28;20466;-79
2023/04/18 12:27:58;;;;;;;11.85;11.05;;;;;;;;;;5071084;28;20403;-79
2023/04/18 12:30:25;;;;;;;14.68;13.32;;;;;;;;;;5071382;28;20720;-79
2023/04/18 12:32:52;;;;;;;11.98;11.07;;;;;;;;;;5069193;28;20444;-79
2023/04/18 12:35:19;;;;;;;10.38;9.65;;;;;;;;;;5071524;28;20895;-79
2023/04/18 12:37:46;;;;;;;10.25;9.50;;;;;;;;;;5067804;28;20380;-79
2023/04/18 12:40:12;;;;;;;9.85;9.15;;;;;;;;;;5066430;28;20846;-79
2023/04/18 12:42:39;;;;;;;9.63;8.93;;;;;;;;;;5062545;28;21047;-79
2023/04/18 12:45:09;;;;;;;9.50;8.80;;;;;;;;;;5058537;28;20464;-80
2023/04/18 12:47:35;;;;;;;10.02;9.25;;;;;;;;;;5061658;28;20384;-79
2023/04/18 12:50:01;;;;;;;9.53;8.83;;;;;;;;;;5073367;28;20375;-79
2023/04/18 12:52:27;;;;;;;9.55;8.88;;;;;;;;;;5067639;28;20854;-80
2023/04/18 12:54:55;;;;;;;9.65;8.95;;;;;;;;;;5069921;28;20376;-79
2023/04/18 12:57:21;;;;;;;8.95;8.35;;;;;;;;;;5072698;28;20384;-79
2023/04/18 12:59:47;;;;;;;8.25;7.65;;;;;;;;;;5071910;28;20384;-79
2023/04/18 13:02:13;;;;;;;8.63;7.97;;;;;;;;;;5064816;28;20404;-80
2023/04/18 13:04:39;;;;;;;8.07;7.47;;;;;;;;;;5066348;28;20379;-80
2023/04/18 13:07:05;;;;;;;8.00;7.40;;;;;;;;;;5064691;28;20498;-80
2023/04/18 13:09:31;;;;;;;7.70;7.10;;;;;;;;;;5063502;28;20484;-79
2023/04/18 13:11:57;;;;;;;7.40;6.80;;;;;;;;;;5058841;28;20370;-79
2023/04/18 13:14:23;;;;;;;9.27;8.57;;;;;;;;;;5055116;28;20727;-80
2023/04/18 13:16:49;;;;;;;9.40;8.60;;;;;;;;;;5060093;28;20387;-80
2023/04/18 13:19:15;;;;;;;14.48;13.00;;;;;;;;;;5072831;28;21225;-79
2023/04/18 13:21:41;;;;;;;15.68;12.50;;;;;;;;;;5072659;28;20383;-79
2023/04/18 13:24:07;;;;;;;11.82;10.63;;;;;;;;;;5071719;28;20861;-79
2023/04/18 13:26:34;;;;;;;9.07;8.30;;;;;;;;;;5072527;28;20476;-80
2023/04/18 13:29:01;;;;;;;15.23;11.20;;;;;;;;;;5072674;28;20414;-79
2023/04/18 13:31:27;;;;;;;11.43;10.23;;;;;;;;;;5071882;28;20382;-79
2023/04/18 13:33:53;;;;;;;26.20;16.33;;;;;;;;;;5071566;28;20387;-79
2023/04/18 13:36:19;;;;;;;10.18;9.18;;;;;;;;;;5067021;28;20384;-79
2023/04/18 13:38:45;;;;;;;6.15;5.75;;;;;;;;;;5066685;28;20387;-80
2023/04/18 13:41:11;;;;;;;6.30;5.80;;;;;;;;;;5071921;28;20396;-79
2023/04/18 13:43:37;;;;;;;5.97;5.57;;;;;;;;;;5072235;28;20387;-80
2023/04/18 13:46:03;;;;;;;6.10;5.60;;;;;;;;;;5072746;28;20400;-79
2023/04/18 13:48:29;;;;;;;6.15;5.75;;;;;;;;;;5072246;28;20423;-79
2023/04/18 13:50:56;;;;;;;6.30;5.88;;;;;;;;;;5072033;28;20411;-79
2023/04/18 13:53:21;;;;;;;5.93;5.53;;;;;;;;;;5072099;28;20380;-80
2023/04/18 13:55:48;;;;;;;8.13;7.53;;;;;;;;;;5062364;28;20386;-79
2023/04/18 13:58:14;;;;;;;8.77;8.18;;;;;;;;;;5072014;28;20391;-79
2023/04/18 14:00:40;;;;;;;9.48;8.77;;;;;;;;;;5071854;28;20376;-80
2023/04/18 14:03:06;;;;;;;8.70;8.10;;;;;;;;;;5071846;28;20383;-80
2023/04/18 14:05:32;;;;;;;8.45;7.85;;;;;;;;;;5071833;28;20410;-79
2023/04/18 14:08:02;;;;;;;8.90;8.20;;;;;;;;;;5071428;28;20396;-80
2023/04/18 14:10:28;;;;;;;9.07;8.37;;;;;;;;;;5071619;28;20372;-79
2023/04/18 14:12:54;;;;;;;8.20;7.60;;;;;;;;;;5071556;28;20873;-79
2023/04/18 14:15:20;;;;;;;7.18;6.63;;;;;;;;;;5071243;28;20386;-79
2023/04/18 14:17:46;;;;;;;6.03;5.63;;;;;;;;;;5071582;28;20382;-79
2023/04/18 14:20:14;;;;;;;5.82;5.43;;;;;;;;;;5071510;28;20383;-79
2023/04/18 14:22:40;;;;;;;6.60;6.10;;;;;;;;;;5071537;28;20802;-79
2023/04/18 14:25:07;;;;;;;5.90;5.50;;;;;;;;;;5071472;28;20449;-79
2023/04/18 14:27:33;;;;;;;5.70;5.30;;;;;;;;;;5071458;28;20403;-80